Time;durP1;ratioP1;P1;durP2;ratioP2;P2;SDS_P1;SDS_P2;PMS_P1;PMS_P2;Temp;Humidity;BMP_temperature;BMP_pressure;BME280_temperature;BME280_humidity;BME280_pressure;Samples;Min_cycle;Max_cycle;Signal;HPM_P1;HPM_P2
2021/03/25 00:01:45;;;;;;;39.67;20.27;;;;;;;-1.13;100.00;101298.06;5021860;28;20103;-72
2021/03/25 00:04:13;;;;;;;39.53;20.10;;;;;;;-1.16;100.00;101292.78;5004108;28;20136;-73
2021/03/25 00:06:43;;;;;;;37.87;22.30;;;;;;;-1.16;100.00;101294.47;4971286;28;20041;-72
2021/03/25 00:09:24;;;;;;;39.97;21.60;;;;;;;-1.16;100.00;101294.47;5006379;28;20049;-71
2021/03/25 00:11:50;;;;;;;44.77;21.03;;;;;;;-1.18;100.00;101294.44;5023973;28;20049;-72
2021/03/25 00:14:17;;;;;;;42.57;20.57;;;;;;;-1.17;100.00;101291.00;5006269;28;20053;-72
2021/03/25 00:16:43;;;;;;;39.23;21.00;;;;;;;-1.18;100.00;101289.25;4989295;28;20038;-72
2021/03/25 00:19:09;;;;;;;42.80;22.17;;;;;;;-1.19;100.00;101287.44;5021674;28;20602;-72
2021/03/25 00:21:36;;;;;;;44.07;21.23;;;;;;;-1.19;100.00;101282.25;5022085;28;20037;-71
2021/03/25 00:24:04;;;;;;;41.73;21.97;;;;;;;-1.18;100.00;101285.75;5005914;28;20049;-72
2021/03/25 00:26:31;;;;;;;47.57;23.07;;;;;;;-1.18;100.00;101278.88;5005964;28;20037;-72
2021/03/25 00:28:57;;;;;;;46.20;23.40;;;;;;;-1.20;100.00;101279.63;5005039;28;20599;-72
2021/03/25 00:31:23;;;;;;;41.93;22.83;;;;;;;-1.24;100.00;101277.75;5004018;28;20083;-72
2021/03/25 00:33:50;;;;;;;45.27;22.23;;;;;;;-1.26;100.00;101279.38;5004473;28;20041;-72
2021/03/25 00:36:17;;;;;;;44.57;23.03;;;;;;;-1.28;100.00;101278.44;4991630;28;20566;-72
2021/03/25 00:38:43;;;;;;;45.37;21.87;;;;;;;-1.31;100.00;101275.75;5024944;28;20120;-71
2021/03/25 00:41:10;;;;;;;42.43;20.23;;;;;;;-1.35;100.00;101274.75;5007133;28;20712;-71
2021/03/25 00:43:36;;;;;;;37.47;19.20;;;;;;;-1.37;100.00;101275.53;4991886;28;20564;-73
2021/03/25 00:46:02;;;;;;;45.03;23.20;;;;;;;-1.37;100.00;101268.63;5006726;28;20045;-71
2021/03/25 00:48:28;;;;;;;43.77;21.97;;;;;;;-1.37;100.00;101268.63;5004894;28;20072;-72
2021/03/25 00:50:58;;;;;;;41.67;22.20;;;;;;;-1.38;100.00;101261.69;5024280;28;20072;-71
2021/03/25 00:53:29;;;;;;;48.13;23.87;;;;;;;-1.41;100.00;101259.00;5022216;28;20049;-72
2021/03/25 00:55:56;;;;;;;40.20;22.03;;;;;;;-1.44;100.00;101258.84;5008278;28;20037;-71
2021/03/25 00:58:22;;;;;;;44.53;20.03;;;;;;;-1.48;100.00;101265.66;5007263;28;20049;-71
2021/03/25 01:00:49;;;;;;;42.20;21.60;;;;;;;-1.51;100.00;101265.53;5023415;28;20037;-71
2021/03/25 01:03:19;;;;;;;42.70;21.83;;;;;;;-1.53;100.00;101263.69;5022352;28;20034;-72
2021/03/25 01:05:45;;;;;;;44.63;21.90;;;;;;;-1.57;100.00;101262.72;5003073;28;20518;-71
2021/03/25 01:08:12;;;;;;;36.20;19.50;;;;;;;-1.59;100.00;101258.31;5006871;28;20049;-71
2021/03/25 01:10:49;;;;;;;44.33;21.50;;;;;;;-1.61;100.00;101268.56;4989347;28;20046;-72
2021/03/25 01:13:27;;;;;;;45.87;23.20;;;;;;;-1.63;100.00;101266.75;5004825;28;20054;-71
2021/03/25 01:15:53;;;;;;;40.80;21.43;;;;;;;-1.66;100.00;101262.34;4987642;28;20034;-71
2021/03/25 01:18:19;;;;;;;43.60;21.43;;;;;;;-1.70;100.00;101256.16;4986770;28;20049;-71
2021/03/25 01:20:46;;;;;;;45.90;21.47;;;;;;;-1.72;100.00;101272.47;5021074;28;20034;-71
2021/03/25 01:23:13;;;;;;;49.10;23.67;;;;;;;-1.74;100.00;101259.47;5006400;28;20046;-72
2021/03/25 01:25:41;;;;;;;46.23;22.20;;;;;;;-1.74;100.00;101259.47;5004217;28;20091;-72
2021/03/25 01:28:10;;;;;;;53.83;25.50;;;;;;;-1.71;100.00;101263.88;5004149;28;20049;-72
2021/03/25 01:30:37;;;;;;;47.27;23.90;;;;;;;-1.71;100.00;101253.50;5023706;28;20041;-71
2021/03/25 01:33:06;;;;;;;48.07;22.80;;;;;;;-1.73;100.00;101260.34;5024471;28;20091;-72
2021/03/25 01:35:34;;;;;;;48.50;23.27;;;;;;;-1.76;100.00;101253.34;5006852;28;20053;-71
2021/03/25 01:38:00;;;;;;;42.80;21.63;;;;;;;-1.80;100.00;101263.53;5002141;28;20041;-71
2021/03/25 01:40:33;;;;;;;43.17;20.80;;;;;;;-1.83;100.00;101259.13;4993190;28;20220;-71
2021/03/25 01:43:13;;;;;;;41.88;20.60;;;;;;;-1.84;100.00;101257.34;4994985;28;20061;-72
2021/03/25 01:45:49;;;;;;;40.77;19.50;;;;;;;-1.85;100.00;101258.19;4994095;28;20033;-72
2021/03/25 01:48:16;;;;;;;;;;;;;;;-1.87;100.00;101257.22;5006127;28;20041;-72
2021/03/25 01:50:42;;;;;;;47.53;23.37;;;;;;;-1.91;100.00;101257.94;5009509;28;19925;-71
2021/03/25 01:53:20;;;;;;;45.43;22.37;;;;;;;-1.90;100.00;101246.75;5028678;28;20030;-71
2021/03/25 01:55:55;;;;;;;51.10;24.57;;;;;;;-1.87;100.00;101253.75;5010071;28;20056;-70
2021/03/25 01:58:33;;;;;;;56.75;27.00;;;;;;;-1.88;100.00;101239.03;5010030;28;20056;-71
2021/03/25 02:01:10;;;;;;;49.03;24.17;;;;;;;-1.88;100.00;101244.22;5003860;28;20136;-72
2021/03/25 02:03:48;;;;;;;52.57;24.30;;;;;;;-1.88;100.00;101242.50;5010484;28;20055;-69
2021/03/25 02:06:22;;;;;;;51.23;22.93;;;;;;;-1.91;100.00;101244.97;5023731;28;20124;-69
2021/03/25 02:09:11;;;;;;;47.17;23.52;;;;;;;-1.95;100.00;101242.19;5009761;28;20040;-69
2021/03/25 02:12:04;;;;;;;44.97;22.73;;;;;;;-2.00;100.00;101239.44;4997347;28;20045;-69
2021/03/25 02:14:35;;;;;;;46.13;23.50;;;;;;;-2.04;100.00;101242.72;4992033;28;20519;-69
2021/03/25 02:17:24;;;;;;;47.63;22.37;;;;;;;-2.08;100.00;101235.66;5007650;28;20050;-69
2021/03/25 02:20:10;;;;;;;47.77;22.13;;;;;;;-2.12;100.00;101228.59;5004945;28;20033;-69
2021/03/25 02:23:24;;;;;;;44.43;21.70;;;;;;;-2.14;100.00;101232.84;5026175;28;20060;-69
2021/03/25 02:26:08;;;;;;;43.07;21.13;;;;;;;-2.13;100.00;101229.41;4939783;28;20043;-69
2021/03/25 02:28:46;;;;;;;54.20;24.90;;;;;;;-2.09;100.00;101229.63;5007285;28;20042;-69
2021/03/25 02:31:16;;;;;;;46.17;23.80;;;;;;;-2.09;100.00;101224.44;5024161;28;20295;-69
2021/03/25 02:33:46;;;;;;;46.10;22.63;;;;;;;-2.11;100.00;101222.59;5007546;28;20126;-68
2021/03/25 02:36:14;;;;;;;44.70;21.67;;;;;;;-2.15;100.00;101228.47;5009969;28;20120;-71
2021/03/25 02:38:44;;;;;;;44.13;22.93;;;;;;;-2.20;100.00;101228.28;4996182;28;20045;-71
2021/03/25 02:41:19;;;;;;;40.73;21.77;;;;;;;-2.22;100.00;101229.06;4991697;28;20041;-69
2021/03/25 02:43:57;;;;;;;43.97;21.50;;;;;;;-2.24;100.00;101229.00;5023571;28;20414;-70
2021/03/25 02:46:25;;;;;;;35.93;18.67;;;;;;;-2.27;100.00;101223.69;5006467;28;20432;-71
2021/03/25 02:48:54;;;;;;;37.73;19.90;;;;;;;-2.28;100.00;101227.97;5007737;28;20038;-69
2021/03/25 02:51:27;;;;;;;39.47;20.80;;;;;;;-2.30;100.00;101221.84;5007585;28;20046;-71
2021/03/25 02:53:53;;;;;;;40.80;19.50;;;;;;;-2.29;100.00;101222.75;5007890;28;20049;-71
2021/03/25 02:56:29;;;;;;;42.67;19.83;;;;;;;-2.28;100.00;101227.09;5026830;28;20091;-69
2021/03/25 02:59:01;;;;;;;38.97;20.73;;;;;;;-2.30;100.00;101227.03;4990447;28;20068;-69
2021/03/25 03:01:28;;;;;;;42.73;20.37;;;;;;;-2.32;100.00;101231.28;4992297;28;20854;-69
2021/03/25 03:04:17;;;;;;;42.87;20.23;;;;;;;-2.34;100.00;101225.16;5007730;28;20041;-68
2021/03/25 03:06:47;;;;;;;41.00;20.70;;;;;;;-2.34;100.00;101227.75;4993109;28;20037;-69
2021/03/25 03:09:23;;;;;;;43.73;20.33;;;;;;;-2.36;100.00;101224.19;4992265;28;20088;-69
2021/03/25 03:11:51;;;;;;;43.27;20.70;;;;;;;-2.37;100.00;101225.00;5009495;28;20494;-69
2021/03/25 03:14:26;;;;;;;38.10;19.67;;;;;;;-2.38;100.00;101228.44;4991224;28;20045;-69
2021/03/25 03:16:54;;;;;;;;;;;;;;;-2.39;100.00;101223.19;5011256;28;20038;-69
2021/03/25 03:19:32;;;;;;;41.37;20.60;;;;;;;-2.39;100.00;101225.78;5006407;28;19944;-69
2021/03/25 03:22:05;;;;;;;45.07;21.60;;;;;;;-2.38;100.00;101227.53;5005293;28;20056;-70
2021/03/25 03:24:31;;;;;;;42.93;21.73;;;;;;;-2.39;100.00;101231.84;5009803;28;20042;-69
2021/03/25 03:27:25;;;;;;;47.73;23.23;;;;;;;-2.38;100.00;101227.53;5008574;28;20049;-69
2021/03/25 03:29:53;;;;;;;52.40;22.00;;;;;;;-2.40;100.00;101224.91;5006002;28;20095;-69
2021/03/25 03:32:43;;;;;;;47.00;22.10;;;;;;;-2.42;100.00;101234.31;5009541;28;20491;-70
2021/03/25 03:35:23;;;;;;;43.63;21.87;;;;;;;-2.46;100.00;101229.81;4991800;28;20056;-70
2021/03/25 03:37:55;;;;;;;46.93;21.77;;;;;;;-2.49;100.00;101232.28;5002137;28;20730;-69
2021/03/25 03:40:26;;;;;;;42.90;20.13;;;;;;;-2.52;100.00;101242.53;5023699;28;20099;-69
2021/03/25 03:42:57;;;;;;;42.90;21.20;;;;;;;-2.55;100.00;101239.78;5008852;28;20103;-71
2021/03/25 03:45:24;;;;;;;42.27;20.20;;;;;;;-2.57;100.00;101238.84;5005546;28;20088;-69
2021/03/25 03:47:51;;;;;;;40.73;21.77;;;;;;;-2.57;100.00;101238.84;5005863;28;20049;-69
2021/03/25 03:50:30;;;;;;;49.50;23.30;;;;;;;-2.55;100.00;101238.09;5007271;28;20053;-70
2021/03/25 03:52:57;;;;;;;48.77;21.97;;;;;;;-2.56;100.00;101240.59;4993426;28;20420;-70
2021/03/25 03:55:23;;;;;;;46.37;21.47;;;;;;;-2.58;100.00;101232.78;4992204;28;20529;-69
2021/03/25 03:58:07;;;;;;;43.07;21.73;;;;;;;-2.59;100.00;101235.31;4990747;28;20053;-69
2021/03/25 04:00:53;;;;;;;47.33;23.40;;;;;;;-2.59;100.00;101225.84;5005129;28;20045;-69
2021/03/25 04:03:37;;;;;;;54.47;23.90;;;;;;;-2.57;100.00;101231.97;5007650;28;20518;-69
2021/03/25 04:06:07;;;;;;;47.80;22.60;;;;;;;-2.57;100.00;101233.69;5008037;28;20069;-69
2021/03/25 04:08:37;;;;;;;50.50;23.93;;;;;;;-2.59;100.00;101236.19;5008101;28;20092;-69
2021/03/25 04:11:21;;;;;;;47.53;23.27;;;;;;;-2.63;100.00;101236.00;5008307;28;20037;-70
2021/03/25 04:13:55;;;;;;;52.33;22.38;;;;;;;-2.70;100.00;101234.84;4989050;28;20064;-69
2021/03/25 04:16:23;;;;;;;41.50;21.27;;;;;;;-2.74;100.00;101229.50;4992305;28;20092;-70
2021/03/25 04:18:54;;;;;;;42.10;20.50;;;;;;;-2.77;100.00;101229.38;5005227;28;20083;-70
2021/03/25 04:21:23;;;;;;;46.03;20.43;;;;;;;-2.79;100.00;101234.47;4990792;28;20053;-70
2021/03/25 04:23:51;;;;;;;45.20;21.87;;;;;;;-2.80;100.00;101235.28;5007755;28;20045;-69
2021/03/25 04:26:26;;;;;;;45.73;22.57;;;;;;;-2.81;100.00;101235.22;5006593;28;20041;-69
2021/03/25 04:29:02;;;;;;;39.43;19.00;;;;;;;-2.84;100.00;101228.22;4987690;28;20050;-69
2021/03/25 04:31:32;;;;;;;50.67;22.43;;;;;;;-2.86;100.00;101233.34;5014190;28;20096;-69
2021/03/25 04:34:00;;;;;;;45.73;22.33;;;;;;;-2.88;100.00;101227.19;4992177;28;20618;-69
2021/03/25 04:36:31;;;;;;;43.07;21.57;;;;;;;-2.90;100.00;101228.84;4988866;28;20408;-69
2021/03/25 04:38:57;;;;;;;41.80;19.93;;;;;;;-2.92;100.00;101235.66;4974369;28;20052;-70
2021/03/25 04:41:24;;;;;;;48.00;21.53;;;;;;;-2.91;100.00;101233.97;4992058;28;20041;-69
2021/03/25 04:43:58;;;;;;;47.70;24.10;;;;;;;-2.91;100.00;101233.97;4991084;28;20041;-69
2021/03/25 04:46:35;;;;;;;37.90;20.52;;;;;;;-2.94;100.00;101232.13;5008100;28;20398;-69
2021/03/25 04:49:04;;;;;;;43.63;24.53;;;;;;;-2.97;100.00;101233.69;4988480;28;20068;-69
2021/03/25 04:51:30;;;;;;;40.23;20.17;;;;;;;-2.97;100.00;101233.69;5008239;28;20438;-69
2021/03/25 04:54:29;;;;;;;39.57;20.43;;;;;;;-3.01;100.00;101235.28;5022847;28;20403;-69
2021/03/25 04:57:24;;;;;;;41.70;20.30;;;;;;;-3.01;100.00;101234.38;5007962;28;20037;-69
2021/03/25 04:59:52;;;;;;;50.10;22.60;;;;;;;-2.98;100.00;101235.38;5018154;28;20045;-69
2021/03/25 05:02:18;;;;;;;49.90;22.27;;;;;;;-2.95;100.00;101230.34;4991201;28;20111;-69
2021/03/25 05:04:51;;;;;;;45.13;21.70;;;;;;;-2.94;100.00;101242.47;4976736;28;20045;-71
2021/03/25 05:07:21;;;;;;;44.27;21.77;;;;;;;-2.94;100.00;101241.59;5008768;28;20037;-71
2021/03/25 05:09:47;;;;;;;39.17;20.47;;;;;;;-2.95;100.00;101238.09;5005319;28;20096;-71
2021/03/25 05:12:17;;;;;;;45.93;20.93;;;;;;;-2.93;100.00;101233.00;5004864;28;20042;-71
2021/03/25 05:14:44;;;;;;;43.37;21.97;;;;;;;-2.91;100.00;101231.38;5002257;28;20682;-71
2021/03/25 05:17:20;;;;;;;43.33;19.77;;;;;;;-2.87;100.00;101241.00;5025077;28;20040;-71
2021/03/25 05:20:10;;;;;;;45.67;21.13;;;;;;;-2.83;100.00;101241.22;5007280;28;20053;-71
2021/03/25 05:22:41;;;;;;;40.83;21.93;;;;;;;-2.75;100.00;101243.25;5008571;28;20045;-71
2021/03/25 05:25:08;;;;;;;42.83;20.30;;;;;;;-2.70;100.00;101240.03;5026259;28;20649;-71
2021/03/25 05:27:42;;;;;;;47.57;22.30;;;;;;;-2.65;100.00;101238.53;5007647;28;20056;-71
2021/03/25 05:30:15;;;;;;;43.33;21.27;;;;;;;-2.61;100.00;101242.09;5003986;28;20095;-72
2021/03/25 05:32:44;;;;;;;44.35;22.35;;;;;;;-2.57;100.00;101247.50;4978718;28;20084;-71
2021/03/25 05:35:15;;;;;;;49.30;22.07;;;;;;;-2.48;100.00;101254.75;4990308;28;20128;-71
2021/03/25 05:37:45;;;;;;;48.87;22.50;;;;;;;-2.42;100.00;101249.84;4992398;28;20049;-71
2021/03/25 05:40:25;;;;;;;50.90;21.67;;;;;;;-2.35;100.00;101258.75;5006435;28;20041;-71
2021/03/25 05:43:16;;;;;;;49.60;23.47;;;;;;;-2.30;100.00;101252.91;4975898;28;20454;-71
2021/03/25 05:46:06;;;;;;;52.77;24.37;;;;;;;-2.18;100.00;101251.66;4989814;28;20033;-71
2021/03/25 05:49:06;;;;;;;49.30;22.60;;;;;;;-2.06;100.00;101262.50;5026529;28;20045;-72
2021/03/25 05:51:44;;;;;;;48.07;22.07;;;;;;;-1.98;100.00;101258.50;5024200;28;20046;-71
2021/03/25 05:54:22;;;;;;;52.53;24.43;;;;;;;-1.86;100.00;101256.38;4977892;28;20092;-71
2021/03/25 05:57:13;;;;;;;44.57;23.37;;;;;;;-1.72;100.00;101265.59;4991645;28;20160;-72
2021/03/25 06:00:00;;;;;;;55.43;24.50;;;;;;;-1.58;100.00;101260.94;5015617;28;20042;-72
2021/03/25 06:02:44;;;;;;;48.17;23.03;;;;;;;-1.45;100.00;101262.28;4986037;28;20438;-72
2021/03/25 06:05:12;;;;;;;49.97;23.10;;;;;;;-1.36;100.00;101262.63;5003287;28;20120;-72
2021/03/25 06:07:47;;;;;;;50.87;24.97;;;;;;;-1.25;100.00;101270.81;5008246;28;20033;-71
2021/03/25 06:10:43;;;;;;;50.53;23.83;;;;;;;-1.11;100.00;101272.19;5024171;28;20426;-71
2021/03/25 06:13:31;;;;;;;44.83;22.07;;;;;;;-0.94;100.00;101298.72;4987459;28;20033;-71
2021/03/25 06:16:13;;;;;;;50.33;24.57;;;;;;;-0.80;100.00;101289.72;5006994;28;20034;-71
2021/03/25 06:19:10;;;;;;;46.73;22.00;;;;;;;-0.63;100.00;101285.13;5021715;28;20371;-71
2021/03/25 06:22:06;;;;;;;45.60;22.80;;;;;;;-0.48;100.00;101296.06;4993233;28;20527;-71
2021/03/25 06:24:50;;;;;;;50.37;24.27;;;;;;;-0.31;100.00;101294.91;5025120;28;20446;-71
2021/03/25 06:27:29;;;;;;;46.77;21.53;;;;;;;-0.10;100.00;101286.94;5022858;28;20052;-71
2021/03/25 06:29:58;;;;;;;54.87;25.53;;;;;;;0.27;100.00;101291.59;4993759;28;20037;-71
2021/03/25 06:32:46;;;;;;;53.93;25.97;;;;;;;0.94;100.00;101289.25;5007172;28;20037;-72
2021/03/25 06:35:17;;;;;;;54.63;23.63;;;;;;;1.55;100.00;101289.19;5009033;28;20144;-73
2021/03/25 06:37:52;;;;;;;52.10;25.87;;;;;;;2.07;100.00;101285.28;5019178;28;20049;-72
2021/03/25 06:40:24;;;;;;;51.40;25.33;;;;;;;2.62;96.76;101297.00;5010659;28;20045;-72
2021/03/25 06:43:10;;;;;;;47.43;24.40;;;;;;;3.23;96.62;101293.03;5007086;28;20445;-72
2021/03/25 06:45:44;;;;;;;50.73;27.53;;;;;;;3.88;93.89;101280.28;5006501;28;20120;-73
2021/03/25 06:48:29;;;;;;;50.63;25.30;;;;;;;4.46;90.77;101281.19;5000825;28;20033;-72
2021/03/25 06:50:55;;;;;;;;;;;;;;;4.91;87.71;101281.78;5005653;28;20091;-73
2021/03/25 06:53:28;;;;;;;56.03;31.20;;;;;;;5.41;87.66;101285.00;4992951;28;19929;-73
2021/03/25 06:56:02;;;;;;;51.83;29.75;;;;;;;5.73;86.20;101298.41;4976155;28;20545;-73
2021/03/25 06:58:45;;;;;;;43.45;25.45;;;;;;;6.27;81.77;101291.03;4996412;28;20575;-73
2021/03/25 07:01:30;;;;;;;52.70;26.90;;;;;;;6.75;82.41;101309.72;4976677;28;20091;-73
2021/03/25 07:04:00;;;;;;;43.73;25.13;;;;;;;7.25;82.03;101301.19;5023975;28;20044;-73
2021/03/25 07:06:29;;;;;;;42.37;26.77;;;;;;;7.75;79.49;101297.78;4990109;28;20044;-73
2021/03/25 07:08:56;;;;;;;42.20;24.23;;;;;;;8.24;77.83;101302.16;4983821;28;20550;-73
2021/03/25 07:11:26;;;;;;;51.35;29.17;;;;;;;8.87;74.15;101295.06;5022432;28;20037;-72
2021/03/25 07:14:01;;;;;;;44.85;27.60;;;;;;;9.22;70.57;101302.81;5009764;28;20037;-74
2021/03/25 07:16:33;;;;;;;45.20;28.20;;;;;;;9.50;68.97;101303.56;5025380;28;20049;-73
2021/03/25 07:19:21;;;;;;;51.30;28.42;;;;;;;9.53;68.11;101304.44;5004266;28;20513;-72
2021/03/25 07:21:55;;;;;;;59.03;31.45;;;;;;;9.02;70.09;101301.16;5007908;28;20060;-72
2021/03/25 07:24:36;;;;;;;53.38;32.58;;;;;;;9.51;70.30;101305.34;5020136;28;20033;-73
2021/03/25 07:27:16;;;;;;;54.05;33.20;;;;;;;9.79;69.52;101306.03;4970378;28;20257;-72
2021/03/25 07:29:44;;;;;;;49.83;29.23;;;;;;;9.99;69.90;101309.38;4973760;28;20776;-73
2021/03/25 07:32:10;;;;;;;48.17;30.15;;;;;;;9.95;69.43;101306.78;4992021;28;20041;-72
2021/03/25 07:34:48;;;;;;;51.13;29.67;;;;;;;9.80;67.88;101323.59;5021063;28;20034;-73
2021/03/25 07:37:18;;;;;;;46.85;27.50;;;;;;;9.95;70.39;101317.34;5005381;28;20026;-72
2021/03/25 07:39:51;;;;;;;55.85;32.92;;;;;;;9.83;68.46;101313.88;5007171;28;20072;-73
2021/03/25 07:42:37;;;;;;;49.00;30.38;;;;;;;9.82;69.49;101321.81;4998729;28;20052;-73
2021/03/25 07:45:32;;;;;;;51.72;31.13;;;;;;;10.01;70.15;101319.97;4991792;28;20048;-73
2021/03/25 07:48:22;;;;;;;50.33;29.60;;;;;;;10.33;69.86;101324.97;5008738;28;20846;-72
2021/03/25 07:50:50;;;;;;;53.22;31.60;;;;;;;10.30;68.54;101330.31;5019430;28;20033;-73
2021/03/25 07:53:23;;;;;;;51.60;31.63;;;;;;;10.98;67.11;101328.72;4986421;28;20115;-73
2021/03/25 07:55:50;;;;;;;50.40;30.88;;;;;;;11.61;63.87;101328.81;5021186;28;20042;-74
2021/03/25 07:58:19;;;;;;;54.15;33.42;;;;;;;12.19;63.04;101329.72;4974497;28;20049;-74
2021/03/25 08:00:45;;;;;;;53.03;33.63;;;;;;;12.85;63.31;101324.13;5001932;28;20065;-73
2021/03/25 08:03:21;;;;;;;48.30;29.65;;;;;;;13.51;61.27;101331.63;5007342;28;20045;-73
2021/03/25 08:05:51;;;;;;;50.78;31.98;;;;;;;14.11;58.60;101328.47;5023741;28;20049;-72
2021/03/25 08:08:30;;;;;;;48.63;30.10;;;;;;;14.83;55.41;101329.31;5023448;28;20426;-72
2021/03/25 08:11:12;;;;;;;44.67;29.25;;;;;;;15.20;51.61;101319.34;5005508;28;20041;-72
2021/03/25 08:13:47;;;;;;;48.25;29.60;;;;;;;15.49;52.63;101315.84;5002784;28;20176;-73
2021/03/25 08:16:22;;;;;;;58.08;35.72;;;;;;;15.67;52.02;101317.09;4986912;28;20096;-73
2021/03/25 08:19:25;;;;;;;49.05;33.42;;;;;;;16.22;48.94;101317.09;5003709;28;20609;-73
2021/03/25 08:22:22;;;;;;;49.05;30.10;;;;;;;16.10;49.32;101329.06;5007610;28;20049;-72
2021/03/25 08:24:54;;;;;;;42.90;28.83;;;;;;;16.85;50.00;101315.84;5018335;28;20063;-73
2021/03/25 08:27:39;;;;;;;43.40;27.65;;;;;;;17.34;48.46;101317.59;5002585;28;20038;-73
2021/03/25 08:30:18;;;;;;;41.92;26.83;;;;;;;17.68;46.21;101321.63;5007412;28;20049;-73
2021/03/25 08:33:10;;;;;;;39.70;26.52;;;;;;;17.79;46.71;101321.22;5022372;28;20041;-72
2021/03/25 08:36:08;;;;;;;34.00;25.85;;;;;;;17.75;45.88;101317.81;4987464;28;20136;-72
2021/03/25 08:39:02;;;;;;;40.22;27.63;;;;;;;18.22;45.23;101323.88;5017362;28;20033;-73
2021/03/25 08:41:37;;;;;;;43.13;29.90;;;;;;;18.52;43.18;101327.06;5021748;28;20140;-72
2021/03/25 08:44:25;;;;;;;43.45;29.40;;;;;;;16.86;46.75;101329.13;4989598;28;20103;-73
2021/03/25 08:47:02;;;;;;;42.13;28.80;;;;;;;18.07;46.19;101328.97;4990838;28;20037;-73
2021/03/25 08:49:39;;;;;;;33.15;24.80;;;;;;;18.77;43.88;101324.25;4990691;28;20104;-71
2021/03/25 08:52:07;;;;;;;44.28;30.35;;;;;;;18.16;44.77;101329.50;4994519;28;20034;-72
2021/03/25 08:54:44;;;;;;;44.05;29.05;;;;;;;18.39;45.97;101324.97;4988027;28;20045;-73
2021/03/25 08:57:17;;;;;;;33.80;24.40;;;;;;;19.70;43.45;101323.59;5002180;28;20038;-73
2021/03/25 08:59:52;;;;;;;38.47;26.05;;;;;;;19.51;41.95;101318.22;4990120;28;20049;-73
2021/03/25 09:02:31;;;;;;;40.10;27.67;;;;;;;18.93;43.02;101323.56;4986728;28;20048;-72
2021/03/25 09:05:06;;;;;;;35.13;25.95;;;;;;;19.01;42.77;101324.09;5005969;28;20056;-72
2021/03/25 09:07:35;;;;;;;39.92;27.42;;;;;;;19.20;41.45;101319.63;4991509;28;20034;-73
2021/03/25 09:10:07;;;;;;;41.33;28.20;;;;;;;19.38;41.49;101315.22;5006334;28;20052;-72
2021/03/25 09:12:34;;;;;;;31.70;23.30;;;;;;;19.85;42.23;101312.16;4998208;28;20053;-73
2021/03/25 09:15:04;;;;;;;36.78;26.60;;;;;;;19.90;39.72;101320.81;5006710;28;20037;-73
2021/03/25 09:17:58;;;;;;;33.50;24.75;;;;;;;20.01;39.59;101323.88;4990745;28;20096;-72
2021/03/25 09:20:30;;;;;;;33.85;24.05;;;;;;;19.95;41.05;101314.28;4991630;28;20076;-71
2021/03/25 09:22:58;;;;;;;31.65;23.80;;;;;;;20.22;40.91;101311.19;5005541;28;20051;-72
2021/03/25 09:25:27;;;;;;;45.95;31.73;;;;;;;19.81;41.12;101316.78;4987756;28;20518;-72
2021/03/25 09:28:04;;;;;;;37.15;28.60;;;;;;;20.90;41.70;101314.84;4989861;28;20516;-73
2021/03/25 09:30:52;;;;;;;31.95;23.20;;;;;;;22.27;38.99;101311.69;5000185;28;20099;-73
2021/03/25 09:33:47;;;;;;;37.03;27.05;;;;;;;21.65;36.22;101308.06;5005606;28;20449;-73
2021/03/25 09:36:16;;;;;;;36.88;26.40;;;;;;;21.19;39.63;101318.66;5004173;28;20064;-72
2021/03/25 09:38:49;;;;;;;31.95;26.20;;;;;;;21.34;39.54;101322.34;5022649;28;20033;-73
2021/03/25 09:41:25;;;;;;;36.65;26.05;;;;;;;21.38;38.77;101315.00;5005972;28;20267;-72
2021/03/25 09:44:14;;;;;;;41.13;30.02;;;;;;;20.58;36.56;101316.50;5021568;28;20129;-72
2021/03/25 09:46:53;;;;;;;34.53;25.45;;;;;;;20.21;38.65;101306.75;5023627;28;20087;-73
2021/03/25 09:49:20;;;;;;;44.83;31.83;;;;;;;19.69;38.93;101312.00;5005353;28;20041;-72
2021/03/25 09:51:48;;;;;;;43.83;31.45;;;;;;;19.78;40.59;101314.25;5003779;28;21450;-72
2021/03/25 09:54:27;;;;;;;31.08;24.30;;;;;;;20.33;39.77;101314.19;5002445;28;20041;-72
2021/03/25 09:57:14;;;;;;;39.20;29.35;;;;;;;19.67;42.38;101312.09;5012704;28;20320;-72
2021/03/25 10:00:06;;;;;;;36.28;24.88;;;;;;;21.05;40.07;101313.16;5020751;28;20425;-72
2021/03/25 10:02:49;;;;;;;34.13;23.05;;;;;;;22.40;37.27;101310.00;5017947;28;20132;-73
2021/03/25 10:05:33;;;;;;;32.70;23.63;;;;;;;23.03;34.60;101301.66;5023547;28;20068;-73
2021/03/25 10:08:00;;;;;;;;;;;;;;;23.16;32.39;101311.69;5004775;28;20042;-72
2021/03/25 10:10:54;;;;;;;38.80;27.30;;;;;;;22.02;33.54;101308.66;4980998;28;20494;-72
2021/03/25 10:13:33;;;;;;;33.03;25.50;;;;;;;21.76;36.74;101307.47;5025350;28;20119;-73
2021/03/25 10:16:02;;;;;;;35.58;27.45;;;;;;;21.81;33.59;101311.63;5011101;28;20049;-72
2021/03/25 10:18:28;;;;;;;36.72;26.20;;;;;;;21.98;34.43;101309.78;4993066;28;20056;-70
2021/03/25 10:21:01;;;;;;;36.13;25.15;;;;;;;21.17;34.75;101315.16;5009452;28;20492;-72
2021/03/25 10:23:37;;;;;;;33.80;25.38;;;;;;;20.43;35.70;101309.22;5005468;28;20916;-74
2021/03/25 10:26:03;;;;;;;33.65;24.40;;;;;;;19.95;37.28;101305.38;5024566;28;20377;-72
2021/03/25 10:28:34;;;;;;;27.88;22.13;;;;;;;21.44;37.55;101299.41;5006663;28;20045;-72
2021/03/25 10:31:06;;;;;;;31.77;23.45;;;;;;;22.19;33.69;101293.28;5005708;28;20057;-73
2021/03/25 10:33:34;;;;;;;29.50;22.45;;;;;;;23.68;33.24;101292.22;5005465;28;20416;-73
2021/03/25 10:36:03;;;;;;;32.75;24.75;;;;;;;24.13;31.22;101291.88;5025237;28;20127;-72
2021/03/25 10:38:36;;;;;;;31.08;22.83;;;;;;;24.05;31.32;101283.44;5003291;28;20052;-73
2021/03/25 10:41:03;;;;;;;29.63;21.67;;;;;;;23.76;30.45;101285.34;5007432;28;20125;-72
2021/03/25 10:43:30;;;;;;;28.88;20.35;;;;;;;23.14;30.21;101284.84;5008322;28;20296;-72
2021/03/25 10:46:00;;;;;;;28.05;21.88;;;;;;;22.29;31.86;101288.25;4988517;28;20511;-73
2021/03/25 10:48:28;;;;;;;29.52;22.13;;;;;;;22.34;31.74;101282.56;5019312;28;20034;-72
2021/03/25 10:50:57;;;;;;;27.00;20.55;;;;;;;21.92;32.00;101284.97;5022014;28;20116;-72
2021/03/25 10:53:28;;;;;;;26.83;19.30;;;;;;;22.72;32.17;101274.88;5026351;28;20424;-72
2021/03/25 10:56:03;;;;;;;19.92;15.38;;;;;;;24.77;31.32;101280.34;4988353;28;20041;-72
2021/03/25 10:58:37;;;;;;;25.15;19.17;;;;;;;24.54;28.03;101280.09;4998092;28;20046;-73
2021/03/25 11:01:07;;;;;;;22.13;17.83;;;;;;;24.45;27.25;101283.44;5022526;28;20048;-73
2021/03/25 11:03:38;;;;;;;25.90;18.75;;;;;;;25.08;26.83;101276.38;4980624;28;20053;-72
2021/03/25 11:06:06;;;;;;;24.77;19.48;;;;;;;25.47;27.04;101275.31;4998448;28;20041;-73
2021/03/25 11:08:41;;;;;;;24.73;18.27;;;;;;;25.24;30.03;101279.72;5004692;28;20053;-72
2021/03/25 11:11:25;;;;;;;19.33;14.80;;;;;;;24.63;26.39;101265.94;5006409;28;20045;-73
2021/03/25 11:14:03;;;;;;;18.13;15.13;;;;;;;23.74;30.06;101270.25;5023890;28;20068;-72
2021/03/25 11:16:31;;;;;;;17.08;14.45;;;;;;;23.10;28.06;101277.03;5024974;28;20040;-74
2021/03/25 11:19:10;;;;;;;17.35;13.77;;;;;;;22.60;29.47;101281.88;5005620;28;20072;-74
2021/03/25 11:21:39;;;;;;;26.00;19.30;;;;;;;20.64;32.17;101278.63;5000612;28;20461;-73
2021/03/25 11:24:26;;;;;;;26.15;17.80;;;;;;;20.61;33.45;101278.78;5007771;28;20049;-72
2021/03/25 11:27:00;;;;;;;21.92;15.82;;;;;;;21.43;30.22;101275.25;5003362;28;20037;-72
2021/03/25 11:29:27;;;;;;;;;;;;;;;20.58;31.87;101272.69;5022524;28;20136;-74
2021/03/25 11:32:23;;;;;;;26.25;16.95;;;;;;;20.06;33.09;101265.47;5006146;28;19921;-71
2021/03/25 11:34:53;;;;;;;23.77;16.33;;;;;;;20.29;34.01;101275.03;4945269;28;20053;-73
2021/03/25 11:37:34;;;;;;;26.73;18.17;;;;;;;20.53;33.33;101272.94;5012303;28;20041;-73
2021/03/25 11:40:16;;;;;;;24.55;17.73;;;;;;;20.83;33.19;101264.22;5003087;28;20045;-72
2021/03/25 11:42:50;;;;;;;26.23;18.73;;;;;;;20.11;34.24;101268.81;5017492;28;20045;-72